CheckWX is a tool to help pilots better visualize weather data.  It is not intended as a substitute for an official pre-flight weather briefing.

04:41:39 UTC

EGSS METAR
London Stansted Airport
London, United Kingdom
Current

22 mins ago

EGSS 230420Z AUTO VRB03KT 9999 NCD 13/13 Q1025
Observed
Aug-23 @ 04:20 UTC
Wind
  • Variable at 3 KTS
Visibility
10,000+ meters
Flight Rules
VFR
Cloud Levels
  • Clear skies
Temperature
13°C / 55°F
Dewpoint
13°C / 55°F
Humidity
100%
Altimeter
30.27" Hg
Pressure
1024.92 hPa
Previous

52 mins ago

EGSS 230350Z AUTO 23004KT 9999 NCD 13/12 Q1025
Observed
Aug-23 @ 03:50 UTC
Wind
  • 230° at 4 KTS
Visibility
10,000+ meters
Flight Rules
VFR
Cloud Levels
  • Clear skies
Temperature
13°C / 55°F
Dewpoint
12°C / 54°F
Humidity
94%
Altimeter
30.27" Hg
Pressure
1024.92 hPa
Previous

1 hour ago

EGSS 230320Z AUTO 23003KT 9999 NCD 13/13 Q1025
Observed
Aug-23 @ 03:20 UTC
Wind
  • 230° at 3 KTS
Visibility
10,000+ meters
Flight Rules
VFR
Cloud Levels
  • Clear skies
Temperature
13°C / 55°F
Dewpoint
13°C / 55°F
Humidity
100%
Altimeter
30.27" Hg
Pressure
1024.92 hPa